• Join FlightAware (Why Join?)
  • Login
  • US Flag 
04:36AM EDT


 

Airport Tracker/Info


-or-


 

Live Flight TrackerFlight Track Log ✈ JZA8278 ✈ 03-Aug-2013 ✈ CYVR - CYPR

Flight Track Log - Related Links

Times and Time Zones

All times are in EDT time to prevent confusion due to time zone crossing. See the JZA8278 flight status page for this flight to view local times or setup timezone preferences in your user account.

Time Position Orientation Groundspeed Altitude Reporting Facility
EDT Latitude Longitude Course Direction KTS MPH feet Rate Location/Type
11:20AM 49.1667 -123.1333 334° Northwest 120 138 1,600  Level Vancouver Center
11:21AM 49.1500 -123.0833 117° Southeast 140 161 3,100 1,380 Climbing Vancouver Center
11:22AM 49.1667 -123.0000 73° East 140 161 4,400 1,320 Climbing Vancouver Center
11:23AM 49.1833 -122.9500 63° Northeast 140 161 5,800 1,380 Climbing Vancouver Center
11:24AM 49.2594 -123.2856 331° Northwest  Level FlightAware Approximate
11:24AM 49.2167 -122.9833 327° Northwest 150 173 7,200  Level Vancouver Center
11:25AM 49.3214 -123.3381 327° Northwest  Level FlightAware Approximate
11:25AM 49.2500 -123.0000 342° North 160 184 8,200  Level Vancouver Center
11:26AM 49.3842 -123.3881 334° Northwest  Level FlightAware Approximate
11:26AM 49.3000 -123.0333 337° Northwest 190 219 9,200  Level Vancouver Center
11:27AM 49.3500 -123.0833 327° Northwest 190 219 10,400 1,200 Climbing Vancouver Center
11:28AM 49.3833 -123.1333 316° Northwest 200 230 11,600 1,140 Climbing Vancouver Center
11:29AM 49.4333 -123.1833 327° Northwest 200 230 12,700 1,020 Climbing Vancouver Center
11:30AM 49.4667 -123.2333 316° Northwest 200 230 13,700 900 Climbing Vancouver Center
11:31AM 49.5167 -123.3167 313° West 210 242 14,500 840 Climbing Vancouver Center
11:32AM 49.5667 -123.3667 327° Northwest 210 242 15,400 840 Climbing Vancouver Center
11:33AM 49.6000 -123.4167 316° Northwest 210 242 16,200 720 Climbing Vancouver Center
11:34AM 49.6500 -123.4833 319° Northwest 210 242 16,900 780 Climbing Vancouver Center
11:35AM 49.7000 -123.5333 327° Northwest 220 253 17,800 660 Climbing Vancouver Center
11:36AM 49.7500 -123.6000 319° Northwest 220 253 18,300 600 Climbing Vancouver Center
11:37AM 49.7833 -123.6667 308° West 210 242 19,100 780 Climbing Vancouver Center
11:38AM 49.8333 -123.7167 327° Northwest 210 242 19,900 720 Climbing Vancouver Center
11:39AM 49.8833 -123.7667 327° Northwest 210 242 20,600 600 Climbing Vancouver Center
11:40AM 49.9167 -123.8500 302° West 220 253 21,200 600 Climbing Vancouver Center
11:41AM 49.9667 -123.9000 327° Northwest 210 242 21,800 360 Climbing Vancouver Center
11:42AM 50.0167 -123.9500 327° Northwest 220 253 22,000 60 Climbing Vancouver Center
11:43AM 50.0667 -124.0333 313° West 230 265 22,000  Level Vancouver Center
11:44AM 50.1167 -124.1167 313° West 250 288 22,000  Level Vancouver Center
11:45AM 50.1667 -124.1667 327° Northwest 250 288 22,000  Level Vancouver Center
11:46AM 50.2167 -124.2500 313° West 250 288 22,000  Level Vancouver Center
11:47AM 50.2833 -124.3167 327° Northwest 250 288 22,000  Level Vancouver Center
11:48AM 50.3333 -124.4000 313° West 260 299 22,000  Level Vancouver Center
11:49AM 50.3833 -124.4500 327° Northwest 250 288 22,000  Level Vancouver Center
11:50AM 50.4333 -124.5333 313° West 250 288 22,000  Level Vancouver Center
11:51AM 50.4833 -124.6167 313° West 250 288 22,000  Level Vancouver Center
11:52AM 50.5500 -124.7000 322° Northwest 260 299 22,000  Level Vancouver Center
11:53AM 50.6000 -124.7500 328° Northwest 250 288 22,000  Level Vancouver Center
11:54AM 50.6500 -124.8333 313° West 250 288 22,000  Level Vancouver Center
11:55AM 50.7000 -124.9000 320° Northwest 260 299 22,000  Level Vancouver Center
11:56AM 50.7667 -124.9833 322° Northwest 250 288 22,000  Level Vancouver Center
11:57AM 50.8167 -125.0333 328° Northwest 260 299 22,000  Level Vancouver Center
11:58AM 50.8667 -125.1167 314° West 260 299 22,000  Level Vancouver Center
11:59AM 50.9167 -125.2000 314° West 250 288 22,000  Level Vancouver Center
12:00PM 50.9667 -125.2833 314° West 250 288 22,000  Level Vancouver Center
12:01PM 51.0333 -125.3333 335° Northwest 250 288 22,000  Level Vancouver Center
12:02PM 51.0833 -125.4167 314° West 250 288 22,000  Level Vancouver Center
12:03PM 51.1333 -125.5000 314° West 250 288 22,000  Level Vancouver Center
12:04PM 51.1833 -125.5833 314° West 250 288 22,000  Level Vancouver Center
12:05PM 51.2333 -125.6333 328° Northwest 250 288 22,000  Level Vancouver Center
12:06PM 51.3000 -125.7167 322° Northwest 250 288 22,000  Level Vancouver Center
12:07PM 51.3500 -125.8000 314° West 250 288 22,000  Level Vancouver Center
12:08PM 51.3833 -125.8833 303° West 260 299 22,000  Level Vancouver Center
12:09PM 51.4333 -125.9333 328° Northwest 250 288 22,000  Level Vancouver Center
12:10PM 51.5000 -126.0167 322° Northwest 250 288 22,000  Level Vancouver Center
12:11PM 51.5500 -126.1000 314° West 250 288 22,000  Level Vancouver Center
12:12PM 51.6000 -126.1833 314° West 250 288 22,000  Level Vancouver Center
12:13PM 51.6500 -126.2500 320° Northwest 250 288 22,000  Level Vancouver Center
12:14PM 51.7000 -126.3333 314° West 250 288 22,000  Level Vancouver Center
12:15PM 51.7500 -126.4167 314° West 250 288 22,000  Level Vancouver Center
12:16PM 51.8167 -126.5000 322° Northwest 250 288 22,000  Level Vancouver Center
12:17PM 51.8667 -126.5500 328° Northwest 250 288 22,000  Level Vancouver Center
12:18PM 51.9167 -126.6333 314° West 250 288 22,000  Level Vancouver Center
12:19PM 51.9500 -126.7167 303° West 250 288 22,000  Level Vancouver Center
12:20PM 52.0000 -126.7833 321° Northwest 250 288 22,000  Level Vancouver Center
12:21PM 52.0500 -126.8667 314° West 250 288 22,000  Level Vancouver Center
12:22PM 52.1000 -126.9500 314° West 250 288 22,000  Level Vancouver Center
12:23PM 52.1667 -127.0333 323° Northwest 250 288 22,000  Level Vancouver Center
12:24PM 52.2167 -127.1000 321° Northwest 250 288 22,000  Level Vancouver Center
12:25PM 52.2667 -127.1833 314° West 250 288 22,000  Level Vancouver Center
12:26PM 52.3167 -127.2667 314° West 250 288 22,000  Level Vancouver Center
12:27PM 52.3833 -127.3333 329° Northwest 250 288 22,000  Level Vancouver Center
12:28PM 52.4167 -127.4167 303° West 250 288 22,000  Level Vancouver Center
12:29PM 52.4667 -127.5000 315° West 250 288 22,000  Level Vancouver Center
12:30PM 52.5167 -127.5500 329° Northwest 250 288 22,000  Level Vancouver Center
12:31PM 52.5667 -127.6500 309° West 250 288 22,000  Level Vancouver Center
12:32PM 52.6167 -127.7333 315° West 250 288 22,000  Level Vancouver Center
12:33PM 52.6667 -127.7833 329° Northwest 250 288 22,000  Level Vancouver Center
12:34PM 52.7167 -127.8833 310° West 250 288 22,000  Level Vancouver Center
12:35PM 52.7500 -127.9667 303° West 250 288 22,000  Level Vancouver Center
12:36PM 52.8167 -128.0500 323° Northwest 250 288 22,000  Level Vancouver Center
12:37PM 52.8667 -128.1167 321° Northwest 250 288 22,000  Level Vancouver Center
12:38PM 52.9167 -128.2000 315° West 250 288 22,000  Level Vancouver Center
12:39PM 52.9667 -128.2833 315° West 250 288 22,000  Level Vancouver Center
12:40PM 53.0167 -128.3500 321° Northwest 260 299 22,000  Level Vancouver Center
12:41PM 53.0500 -128.4333 304° West 250 288 22,000  Level Vancouver Center
12:42PM 53.1167 -128.5333 318° Northwest 250 288 22,000  Level Vancouver Center
12:43PM 53.1667 -128.5833 329° Northwest 250 288 22,000  Level Vancouver Center
12:44PM 53.2167 -128.6833 310° West 240 276 22,000 -240 Level Vancouver Center
12:45PM 53.2667 -128.7667 315° West 250 288 21,600 -660 Descending Vancouver Center
12:46PM 53.3167 -128.8500 315° West 270 311 20,700 -900 Descending Vancouver Center
12:47PM 53.3667 -128.9500 310° West 280 322 19,800 -960 Descending Vancouver Center
12:48PM 53.4333 -129.0333 323° Northwest 280 322 18,800 -960 Descending Vancouver Center
12:49PM 53.4833 -129.1333 310° West 290 334 17,900 -840 Descending Vancouver Center
12:50PM 53.5500 -129.2167 323° Northwest 290 334 17,200 -840 Descending Vancouver Center
12:51PM 53.5833 -129.3167 299° West 290 334 16,300 -900 Descending Vancouver Center
12:52PM 53.6500 -129.4000 323° Northwest 290 334 15,400 -960 Descending Vancouver Center
12:53PM 53.7167 -129.5167 314° West 290 334 14,400 -960 Descending Vancouver Center
12:54PM 53.7500 -129.6167 299° West 290 334 13,500 -960 Descending Vancouver Center
12:55PM 53.8167 -129.7167 318° Northwest 290 334 12,500 -960 Descending Vancouver Center
12:56PM 53.8667 -129.8000 316° Northwest 280 322 11,600 -900 Descending Vancouver Center
12:57PM 53.9333 -129.9000 319° Northwest 280 322 10,700 -900 Descending Vancouver Center
12:58PM 53.9667 -129.9833 304° West 270 311 9,800 -900 Descending Vancouver Center
12:59PM 54.0333 -130.0833 324° Northwest 270 311 8,900 -900 Descending Vancouver Center
01:00PM 54.0314 -130.0641 324° Northwest  Level FlightAware Approximate
01:00PM 54.0833 -130.1667 316° Northwest 270 311 8,000  Level Vancouver Center
01:01PM 54.1500 -130.2667 319° Northwest 270 311 7,200 -900 Descending Vancouver Center
01:02PM 54.1833 -130.3333 311° West 260 299 6,300 -900 Descending Vancouver Center
01:03PM 54.2333 -130.4333 311° West 250 288 5,500 -720 Descending Vancouver Center
01:05PM 54.2833 -130.4333 344° North  Level FlightAware Approximate
01:06PM 54.3833 -130.5667 344° North 170 196 3,500  Level Vancouver Center
01:07PM 54.3833 -130.6500 270° West 170 196 2,900 -540 Descending Vancouver Center
01:08PM 54.4167 -130.6500 360° North 150 173 2,500 -240 Descending Vancouver Center
01:09PM 54.4000 -130.6000 120° Southeast 150 173 2,500 -300 Level Vancouver Center
01:10PM 54.3667 -130.5667 150° Southeast 150 173 2,000 -660 Descending Vancouver Center
01:11PM 54.3333 -130.5333 150° Southeast 130 150 1,200 -720 Descending Vancouver Center
01:12PM 54.2861 -130.4447 344° North  Level Estimated
01:12PM 54.3000 -130.5000 150° Southeast 120 138 600  Level Vancouver Center
01:19PM 49.1333 -123.5000 137° Southeast 90 104 700  Climbing Vancouver Center